Time;durP1;ratioP1;P1;durP2;ratioP2;P2;SDS_P1;SDS_P2;PMS_P1;PMS_P2;Temp;Humidity;BMP_temperature;BMP_pressure;BME280_temperature;BME280_humidity;BME280_pressure;Samples;Min_cycle;Max_cycle;Signal;HPM_P1;HPM_P2
2022/05/26 04:39:32;;;;;;;;;;;17.90;67.40;;;;;;5377064;24;19973;-72
2022/05/26 04:41:59;;;;;;;;;;;17.90;67.40;;;;;;4775830;30;19926;-71
2022/05/26 04:44:24;;;;;;;;;;;17.90;67.30;;;;;;4790617;30;20267;-72
2022/05/26 04:46:50;;;;;;;;;;;17.90;67.30;;;;;;4780116;30;19930;-67
2022/05/26 04:49:16;;;;;;;;;;;17.90;67.30;;;;;;4772692;30;19926;-74
2022/05/26 04:51:42;;;;;;;;;;;18.00;67.70;;;;;;4757394;30;20020;-72
2022/05/26 04:54:07;;;;;;;;;;;17.90;67.90;;;;;;4772600;30;20028;-72
2022/05/26 04:56:33;;;;;;;;;;;18.00;68.00;;;;;;4772457;30;20012;-74
2022/05/26 04:58:59;;;;;;;;;;;18.00;68.40;;;;;;4782432;30;19926;-70
2022/05/26 05:01:24;;;;;;;;;;;18.00;68.30;;;;;;4774502;30;19925;-72
2022/05/26 05:03:50;;;;;;;;;;;18.00;69.10;;;;;;4789887;30;19926;-72
2022/05/26 05:06:16;;;;;;;;;;;18.00;68.30;;;;;;4790600;30;19925;-72
2022/05/26 05:08:42;;;;;;;;;;;18.10;68.20;;;;;;4790544;30;20373;-73
2022/05/26 05:11:08;;;;;;;;;;;18.00;68.10;;;;;;4790328;30;20361;-74
2022/05/26 05:13:34;;;;;;;;;;;18.00;68.30;;;;;;4790412;30;19925;-75
2022/05/26 05:16:03;;;;;;;;;;;18.10;69.00;;;;;;4779320;29;19951;-73
2022/05/26 05:18:29;;;;;;;;;;;18.00;68.20;;;;;;4775882;30;19926;-73
2022/05/26 05:20:57;;;;;;;;;;;18.10;69.00;;;;;;4789974;30;19937;-74
2022/05/26 05:23:23;;;;;;;;;;;18.10;68.20;;;;;;4775712;30;20043;-73
2022/05/26 05:25:51;;;;;;;;;;;18.00;68.10;;;;;;4775540;30;19937;-69
2022/05/26 05:28:21;;;;;;;;;;;18.00;68.00;;;;;;4775612;30;19925;-74
2022/05/26 05:30:49;;;;;;;;;;;18.00;67.90;;;;;;4775751;30;20291;-74
2022/05/26 05:33:16;;;;;;;;;;;17.90;68.00;;;;;;4776101;30;19925;-74
2022/05/26 05:35:46;;;;;;;;;;;18.00;68.00;;;;;;4775881;30;20021;-74
2022/05/26 05:38:13;;;;;;;;;;;17.90;67.80;;;;;;4760510;30;19999;-73
2022/05/26 05:40:38;;;;;;;;;;;17.90;67.80;;;;;;4785509;30;19959;-73
2022/05/26 05:43:04;;;;;;;;;;;17.90;67.70;;;;;;4777750;30;20303;-72
2022/05/26 05:45:30;;;;;;;;;;;17.90;67.60;;;;;;4781143;30;20370;-72
2022/05/26 05:47:55;;;;;;;;;;;17.90;67.50;;;;;;4762293;30;19925;-72
2022/05/26 05:50:21;;;;;;;;;;;17.90;67.50;;;;;;4793273;30;19933;-72
2022/05/26 05:52:47;;;;;;;;;;;17.90;67.50;;;;;;4793419;30;20025;-72
2022/05/26 05:55:12;;;;;;;;;;;17.90;67.50;;;;;;4793757;30;19937;-73
2022/05/26 05:57:38;;;;;;;;;;;17.90;67.50;;;;;;4794006;30;19983;-75
2022/05/26 06:00:04;;;;;;;;;;;17.90;67.40;;;;;;4799404;29;20324;-76
2022/05/26 06:02:31;;;;;;;;;;;17.90;68.60;;;;;;4791209;29;19929;-74
2022/05/26 06:04:57;;;;;;;;;;;17.90;67.60;;;;;;4811541;29;20290;-75
2022/05/26 06:07:23;;;;;;;;;;;17.90;67.60;;;;;;4811262;29;19924;-74
2022/05/26 06:09:49;;;;;;;;;;;18.00;67.60;;;;;;4811141;29;19997;-73
2022/05/26 06:12:16;;;;;;;;;;;18.00;67.70;;;;;;4795428;29;19990;-75
2022/05/26 06:14:46;;;;;;;;;;;18.00;67.70;;;;;;4795053;29;19958;-75
2022/05/26 06:17:12;;;;;;;;;;;18.00;68.10;;;;;;4811008;29;19936;-76
2022/05/26 06:19:38;;;;;;;;;;;18.00;67.90;;;;;;4811217;29;20278;-74
2022/05/26 06:22:07;;;;;;;;;;;18.10;67.70;;;;;;4810757;29;19939;-75
2022/05/26 06:24:33;;;;;;;;;;;18.10;68.30;;;;;;4810825;29;19925;-76
2022/05/26 06:26:58;;;;;;;;;;;18.20;67.90;;;;;;4810315;29;19925;-76
2022/05/26 06:37:38;;;;;;;;;;;18.20;68.10;;;;;;4792221;30;19971;-74
2022/05/26 06:40:05;;;;;;;;;;;18.20;67.90;;;;;;4797884;29;20355;-76
2022/05/26 06:42:31;;;;;;;;;;;18.30;68.50;;;;;;4794704;29;19964;-74
2022/05/26 06:44:56;;;;;;;;;;;18.30;68.30;;;;;;4810540;29;19971;-73
2022/05/26 06:47:22;;;;;;;;;;;18.30;68.30;;;;;;4794551;29;19925;-74
2022/05/26 06:49:48;;;;;;;;;;;18.30;68.50;;;;;;4810602;29;19925;-74
2022/05/26 06:52:17;;;;;;;;;;;18.30;68.40;;;;;;4810127;29;20244;-74
2022/05/26 06:54:44;;;;;;;;;;;18.30;68.30;;;;;;4810026;29;19925;-78
2022/05/26 06:57:10;;;;;;;;;;;18.30;68.30;;;;;;4793445;29;19999;-75
2022/05/26 06:59:36;;;;;;;;;;;18.40;67.70;;;;;;4794273;29;19925;-80
2022/05/26 07:02:03;;;;;;;;;;;18.40;67.60;;;;;;4790350;29;20344;-81
2022/05/26 07:04:29;;;;;;;;;;;18.40;67.50;;;;;;4793823;29;19921;-77
2022/05/26 07:06:55;;;;;;;;;;;18.40;67.20;;;;;;4809901;29;19925;-78
2022/05/26 07:09:22;;;;;;;;;;;18.30;66.40;;;;;;4810032;29;20019;-77
2022/05/26 07:11:48;;;;;;;;;;;18.30;66.60;;;;;;4810667;29;20283;-77
2022/05/26 07:14:13;;;;;;;;;;;18.20;66.30;;;;;;4809907;29;19936;-81
2022/05/26 07:16:39;;;;;;;;;;;18.20;65.70;;;;;;4793979;29;19936;-76
2022/05/26 07:19:05;;;;;;;;;;;18.20;65.30;;;;;;4809961;29;19932;-84
2022/05/26 07:21:31;;;;;;;;;;;18.10;65.70;;;;;;4806826;29;19929;-78
2022/05/26 07:23:56;;;;;;;;;;;18.10;65.80;;;;;;4807080;29;20012;-74
2022/05/26 07:26:24;;;;;;;;;;;18.00;65.80;;;;;;4808727;29;20263;-76
2022/05/26 07:28:51;;;;;;;;;;;18.10;66.30;;;;;;4825417;29;19988;-75
2022/05/26 07:31:17;;;;;;;;;;;18.10;66.50;;;;;;4802873;29;20355;-74
2022/05/26 07:33:43;;;;;;;;;;;18.10;66.60;;;;;;4809649;29;19979;-73
2022/05/26 07:41:16;;;;;;;;;;;18.20;66.60;;;;;;4809660;29;19925;-74
2022/05/26 07:41:40;;;;;;;;;;;18.20;66.50;;;;;;4809029;29;20344;-73
2022/05/26 07:44:06;;;;;;;;;;;18.20;66.40;;;;;;4809197;29;20337;-74
2022/05/26 07:46:31;;;;;;;;;;;18.20;66.50;;;;;;4809200;29;19932;-73
2022/05/26 07:48:57;;;;;;;;;;;18.20;66.40;;;;;;4809190;29;19925;-74
2022/05/26 07:51:22;;;;;;;;;;;18.20;66.50;;;;;;4809179;29;19929;-76
2022/05/26 07:53:48;;;;;;;;;;;18.20;66.50;;;;;;4809131;29;19925;-74
2022/05/26 07:56:14;;;;;;;;;;;18.20;66.40;;;;;;4809086;29;20070;-74
2022/05/26 07:58:40;;;;;;;;;;;18.30;66.70;;;;;;4805178;29;19932;-75
2022/05/26 08:01:07;;;;;;;;;;;18.20;66.70;;;;;;4796686;29;19925;-74
2022/05/26 08:03:34;;;;;;;;;;;18.30;66.10;;;;;;4791390;29;19961;-72
2022/05/26 08:06:02;;;;;;;;;;;18.30;66.50;;;;;;4791312;30;20256;-74
2022/05/26 08:08:30;;;;;;;;;;;18.30;66.40;;;;;;4790854;30;19932;-74
2022/05/26 08:10:55;;;;;;;;;;;18.30;66.40;;;;;;4791336;30;20248;-74
2022/05/26 08:13:21;;;;;;;;;;;18.30;66.80;;;;;;4775119;30;19925;-73
2022/05/26 08:15:47;;;;;;;;;;;18.30;66.80;;;;;;4790772;30;19996;-74
2022/05/26 08:18:12;;;;;;;;;;;18.40;65.00;;;;;;4775739;30;19969;-75
2022/05/26 08:20:38;;;;;;;;;;;18.30;64.60;;;;;;4804304;29;19925;-73
2022/05/26 08:23:03;;;;;;;;;;;18.20;64.80;;;;;;4808661;29;20344;-74
2022/05/26 08:25:29;;;;;;;;;;;18.20;64.40;;;;;;4802804;29;19929;-74
2022/05/26 08:27:55;;;;;;;;;;;18.10;63.50;;;;;;4808497;29;19992;-74
2022/05/26 08:30:20;;;;;;;;;;;18.00;63.60;;;;;;4804999;29;20006;-73
2022/05/26 08:32:46;;;;;;;;;;;18.00;64.50;;;;;;4808712;29;20304;-74
2022/05/26 08:35:12;;;;;;;;;;;18.10;64.70;;;;;;4808702;29;20020;-74
2022/05/26 08:37:38;;;;;;;;;;;18.10;64.00;;;;;;4792851;29;19982;-72
2022/05/26 08:40:04;;;;;;;;;;;18.20;64.60;;;;;;4808322;29;19929;-71
2022/05/26 08:42:31;;;;;;;;;;;18.20;64.80;;;;;;4808473;29;20002;-73
2022/05/26 08:44:59;;;;;;;;;;;18.30;65.00;;;;;;4792514;29;20016;-72
2022/05/26 08:47:45;;;;;;;;;;;18.30;65.20;;;;;;4808268;29;19932;-77
2022/05/26 08:50:14;;;;;;;;;;;18.30;65.20;;;;;;4808441;29;20325;-75
2022/05/26 08:52:48;;;;;;;;;;;18.40;64.70;;;;;;4808822;29;19925;-71
2022/05/26 08:55:19;;;;;;;;;;;18.40;64.40;;;;;;4808469;29;19932;-72
2022/05/26 08:57:53;;;;;;;;;;;18.40;64.60;;;;;;4792611;29;19932;-74
2022/05/26 09:00:21;;;;;;;;;;;18.40;64.80;;;;;;4808472;29;19993;-72
2022/05/26 09:02:51;;;;;;;;;;;18.40;64.70;;;;;;4808609;29;19925;-71
2022/05/26 09:05:17;;;;;;;;;;;18.40;65.10;;;;;;4808043;29;19977;-72
2022/05/26 09:13:43;;;;;;;;;;;18.50;65.40;;;;;;4808113;29;19925;-72
2022/05/26 09:16:10;;;;;;;;;;;18.50;65.40;;;;;;4808006;29;19931;-71
2022/05/26 09:18:36;;;;;;;;;;;18.50;65.50;;;;;;4808153;29;19925;-71
2022/05/26 09:21:32;;;;;;;;;;;18.50;65.70;;;;;;4808333;29;20336;-72
2022/05/26 09:24:16;;;;;;;;;;;18.60;65.80;;;;;;4785779;29;19994;-72
2022/05/26 09:26:46;;;;;;;;;;;18.60;65.70;;;;;;4795949;29;20000;-71
2022/05/26 09:29:12;;;;;;;;;;;18.60;65.90;;;;;;4802541;29;20012;-72
2022/05/26 09:31:44;;;;;;;;;;;18.60;66.00;;;;;;4814936;29;19978;-71
2022/05/26 09:34:18;;;;;;;;;;;18.60;66.00;;;;;;4824897;29;19925;-72
2022/05/26 09:36:45;;;;;;;;;;;18.60;65.90;;;;;;4826401;29;19925;-71
2022/05/26 09:39:12;;;;;;;;;;;18.70;66.00;;;;;;4825441;29;19925;-71
2022/05/26 09:41:43;;;;;;;;;;;18.70;66.00;;;;;;4825924;29;19950;-74
2022/05/26 09:44:35;;;;;;;;;;;18.70;66.10;;;;;;4824608;29;19924;-71
2022/05/26 09:47:03;;;;;;;;;;;18.70;66.10;;;;;;4778410;29;19929;-71
2022/05/26 09:49:33;;;;;;;;;;;18.70;66.10;;;;;;4807873;29;19925;-71
2022/05/26 09:52:15;;;;;;;;;;;18.70;66.00;;;;;;4824884;29;19925;-71
2022/05/26 09:54:41;;;;;;;;;;;18.70;66.10;;;;;;4809573;29;19928;-72
2022/05/26 09:57:15;;;;;;;;;;;18.70;66.20;;;;;;4808118;29;19925;-71
2022/05/26 09:59:42;;;;;;;;;;;18.70;66.10;;;;;;4817087;29;20412;-71
2022/05/26 10:02:16;;;;;;;;;;;18.80;66.20;;;;;;4809155;29;19979;-71
2022/05/26 10:05:02;;;;;;;;;;;18.80;66.20;;;;;;4810580;29;19933;-71
2022/05/26 10:07:46;;;;;;;;;;;18.80;66.30;;;;;;4815823;29;20024;-71
2022/05/26 10:10:34;;;;;;;;;;;18.80;66.30;;;;;;4819257;29;19935;-72
2022/05/26 10:13:02;;;;;;;;;;;18.80;66.30;;;;;;4811082;29;19935;-72
2022/05/26 10:15:46;;;;;;;;;;;18.80;66.30;;;;;;4810872;29;20396;-72
2022/05/26 10:18:14;;;;;;;;;;;18.80;66.20;;;;;;4811034;29;19925;-71
2022/05/26 10:20:46;;;;;;;;;;;18.80;66.20;;;;;;4817524;29;19925;-74
2022/05/26 10:23:19;;;;;;;;;;;18.80;66.50;;;;;;4828693;29;19925;-72
2022/05/26 10:25:56;;;;;;;;;;;18.80;66.40;;;;;;4828475;29;20038;-71
2022/05/26 10:28:36;;;;;;;;;;;18.80;66.50;;;;;;4805032;29;19955;-72
2022/05/26 10:31:07;;;;;;;;;;;18.90;66.50;;;;;;4804301;29;19925;-74
2022/05/26 10:33:38;;;;;;;;;;;18.80;66.30;;;;;;4809652;29;19981;-75
2022/05/26 10:36:04;;;;;;;;;;;18.90;66.80;;;;;;4810434;29;19925;-74
2022/05/26 10:38:44;;;;;;;;;;;18.90;67.10;;;;;;4810502;29;19925;-72
2022/05/26 10:41:23;;;;;;;;;;;18.90;66.90;;;;;;4824288;29;19924;-75
2022/05/26 10:43:52;;;;;;;;;;;18.90;67.40;;;;;;4828506;29;20033;-78
2022/05/26 10:46:19;;;;;;;;;;;18.90;67.40;;;;;;4828176;29;19924;-81
2022/05/26 10:48:47;;;;;;;;;;;19.00;66.90;;;;;;4822687;29;19925;-80
2022/05/26 10:51:13;;;;;;;;;;;19.10;66.80;;;;;;4810540;29;20342;-76
2022/05/26 10:53:53;;;;;;;;;;;19.10;66.50;;;;;;4794754;29;20050;-76
2022/05/26 10:56:26;;;;;;;;;;;19.10;66.20;;;;;;4809784;29;19929;-78
2022/05/26 10:58:54;;;;;;;;;;;19.10;65.90;;;;;;4794538;29;20282;-77
2022/05/26 11:01:29;;;;;;;;;;;19.10;66.00;;;;;;4811094;29;20310;-77
2022/05/26 11:03:58;;;;;;;;;;;19.10;65.90;;;;;;4811496;29;19932;-73
2022/05/26 11:06:26;;;;;;;;;;;19.10;65.90;;;;;;4800953;29;19986;-75
2022/05/26 11:08:57;;;;;;;;;;;19.00;65.90;;;;;;4801596;29;19925;-72
2022/05/26 11:11:23;;;;;;;;;;;19.00;66.00;;;;;;4824229;29;19925;-72
2022/05/26 11:14:01;;;;;;;;;;;19.00;66.10;;;;;;4811022;29;19936;-73
2022/05/26 11:19:18;;;;;;;;;;;19.00;66.40;;;;;;4823864;29;20268;-73
2022/05/26 11:21:44;;;;;;;;;;;19.00;66.30;;;;;;4826515;29;19933;-74
2022/05/26 11:24:11;;;;;;;;;;;19.10;66.10;;;;;;4827302;29;20349;-71
2022/05/26 11:26:40;;;;;;;;;;;19.00;66.50;;;;;;4827791;29;20396;-76
2022/05/26 11:29:12;;;;;;;;;;;19.10;66.60;;;;;;4828113;29;19924;-76
2022/05/26 11:37:34;;;;;;;;;;;19.10;64.90;;;;;;4809948;29;19925;-76
2022/05/26 11:40:06;;;;;;;;;;;19.10;64.00;;;;;;4809485;29;19933;-75
2022/05/26 11:42:33;;;;;;;;;;;19.10;64.10;;;;;;4793200;29;19925;-75
2022/05/26 11:45:08;;;;;;;;;;;19.20;64.20;;;;;;4809335;29;19925;-78
2022/05/26 11:47:46;;;;;;;;;;;19.10;63.90;;;;;;4784065;30;20272;-76
2022/05/26 11:50:20;;;;;;;;;;;19.10;63.90;;;;;;4791646;30;19937;-75
2022/05/26 11:52:46;;;;;;;;;;;19.10;64.30;;;;;;4801507;29;20351;-74
2022/05/26 11:55:30;;;;;;;;;;;19.10;63.30;;;;;;4819770;29;19925;-75
2022/05/26 11:57:55;;;;;;;;;;;19.10;62.70;;;;;;4807544;29;19925;-75
2022/05/26 12:00:21;;;;;;;;;;;19.10;62.20;;;;;;4794251;29;19936;-76
2022/05/26 12:02:50;;;;;;;;;;;19.00;61.80;;;;;;4793335;29;19925;-75
2022/05/26 12:05:28;;;;;;;;;;;19.00;61.90;;;;;;4809111;29;19925;-73
2022/05/26 12:08:01;;;;;;;;;;;19.00;62.30;;;;;;4808925;29;19986;-75
2022/05/26 12:10:28;;;;;;;;;;;18.90;62.80;;;;;;4814628;29;19972;-73
2022/05/26 12:13:12;;;;;;;;;;;18.90;63.30;;;;;;4827412;29;19932;-70
2022/05/26 12:15:59;;;;;;;;;;;18.90;63.50;;;;;;4826367;29;20344;-70
2022/05/26 12:18:36;;;;;;;;;;;19.00;63.90;;;;;;4826505;29;20290;-73
2022/05/26 12:21:25;;;;;;;;;;;19.00;64.20;;;;;;4825614;29;19924;-74
2022/05/26 12:23:52;;;;;;;;;;;19.00;64.20;;;;;;4796745;29;19933;-75
2022/05/26 12:26:26;;;;;;;;;;;19.00;64.40;;;;;;4810078;29;20374;-70
2022/05/26 12:28:51;;;;;;;;;;;19.10;64.50;;;;;;4808681;29;20019;-72
2022/05/26 12:31:17;;;;;;;;;;;19.10;64.40;;;;;;4808590;29;19991;-73
2022/05/26 12:34:02;;;;;;;;;;;19.10;64.60;;;;;;4808648;29;19972;-73
2022/05/26 12:36:39;;;;;;;;;;;19.10;64.70;;;;;;4808674;29;19925;-73
2022/05/26 12:39:23;;;;;;;;;;;19.10;64.80;;;;;;4809076;29;19925;-72
2022/05/26 12:41:58;;;;;;;;;;;19.10;64.90;;;;;;4808453;29;20341;-73
2022/05/26 12:44:42;;;;;;;;;;;19.10;65.00;;;;;;4808740;29;19925;-73
2022/05/26 12:47:12;;;;;;;;;;;19.10;65.10;;;;;;4807973;29;19925;-74
2022/05/26 12:49:38;;;;;;;;;;;19.10;65.20;;;;;;4822986;29;20092;-73
2022/05/26 12:52:27;;;;;;;;;;;19.10;65.30;;;;;;4826981;29;20337;-73
2022/05/26 12:55:05;;;;;;;;;;;19.10;65.40;;;;;;4814454;29;19925;-73
2022/05/26 12:57:31;;;;;;;;;;;19.10;65.40;;;;;;4826564;29;19940;-74
2022/05/26 13:00:15;;;;;;;;;;;19.10;65.40;;;;;;4826747;29;19997;-72
2022/05/26 13:02:41;;;;;;;;;;;19.10;65.60;;;;;;4810782;29;19972;-73
2022/05/26 13:05:08;;;;;;;;;;;19.20;65.80;;;;;;4810773;29;19978;-74
2022/05/26 13:07:34;;;;;;;;;;;19.10;65.70;;;;;;4810648;29;19932;-73
2022/05/26 13:09:59;;;;;;;;;;;19.10;65.80;;;;;;4826321;29;20285;-73
2022/05/26 13:12:25;;;;;;;;;;;19.20;65.90;;;;;;4827040;29;19924;-73
2022/05/26 13:14:53;;;;;;;;;;;19.10;65.90;;;;;;4824135;29;19925;-75
2022/05/26 13:17:22;;;;;;;;;;;19.20;65.90;;;;;;4824909;29;20019;-73
2022/05/26 13:20:04;;;;;;;;;;;19.20;65.90;;;;;;4808169;29;20036;-73
2022/05/26 13:22:33;;;;;;;;;;;19.20;66.00;;;;;;4793070;29;19936;-75
2022/05/26 13:24:58;;;;;;;;;;;19.10;65.90;;;;;;4808211;29;20011;-73
2022/05/26 13:27:25;;;;;;;;;;;19.20;65.90;;;;;;4808224;29;20022;-75
2022/05/26 13:29:52;;;;;;;;;;;19.20;66.00;;;;;;4808187;29;20324;-74
2022/05/26 13:35:16;;;;;;;;;;;19.20;65.90;;;;;;4780849;29;19933;-75
2022/05/26 13:37:42;;;;;;;;;;;19.20;66.00;;;;;;4792162;30;19925;-74
2022/05/26 13:40:18;;;;;;;;;;;19.30;66.00;;;;;;4792132;30;19986;-73
2022/05/26 13:42:46;;;;;;;;;;;19.20;65.90;;;;;;4793031;30;19932;-74
2022/05/26 13:45:31;;;;;;;;;;;19.20;65.90;;;;;;4793312;30;20367;-74
2022/05/26 13:48:17;;;;;;;;;;;19.20;65.90;;;;;;4812665;29;19924;-74
2022/05/26 13:50:50;;;;;;;;;;;19.20;65.90;;;;;;4829430;29;19945;-72
2022/05/26 13:53:15;;;;;;;;;;;19.20;65.90;;;;;;4828891;29;19924;-75
2022/05/26 13:55:44;;;;;;;;;;;19.20;65.90;;;;;;4797100;29;19931;-75
2022/05/26 13:58:10;;;;;;;;;;;19.20;65.90;;;;;;4801811;29;19925;-73
2022/05/26 14:00:37;;;;;;;;;;;19.20;66.00;;;;;;4786980;29;19926;-79
2022/05/26 14:03:05;;;;;;;;;;;19.30;66.10;;;;;;4817486;29;19935;-74
2022/05/26 14:05:32;;;;;;;;;;;19.20;66.60;;;;;;4829565;29;19928;-75
2022/05/26 14:07:58;;;;;;;;;;;19.30;66.20;;;;;;4828930;29;19925;-75
2022/05/26 14:10:37;;;;;;;;;;;19.30;66.70;;;;;;4802384;29;20380;-75
2022/05/26 14:13:05;;;;;;;;;;;19.30;67.00;;;;;;4810620;29;20020;-75
2022/05/26 14:15:42;;;;;;;;;;;19.30;67.90;;;;;;4824543;29;20023;-77
2022/05/26 14:18:22;;;;;;;;;;;19.30;68.00;;;;;;4811211;29;20291;-77
2022/05/26 14:20:56;;;;;;;;;;;19.30;68.90;;;;;;4810906;29;19925;-72
2022/05/26 14:23:22;;;;;;;;;;;19.30;68.50;;;;;;4802952;29;19925;-74
2022/05/26 14:25:57;;;;;;;;;;;19.30;67.60;;;;;;4810404;29;20370;-74
2022/05/26 14:28:30;;;;;;;;;;;19.30;69.70;;;;;;4794280;29;19931;-73
2022/05/26 14:30:56;;;;;;;;;;;19.40;68.10;;;;;;4811331;29;19932;-71
2022/05/26 14:33:23;;;;;;;;;;;19.40;68.10;;;;;;4806912;29;20312;-76
2022/05/26 14:35:50;;;;;;;;;;;19.30;67.30;;;;;;4810873;29;19982;-73
2022/05/26 14:38:17;;;;;;;;;;;19.30;67.00;;;;;;4810690;29;20011;-73
2022/05/26 14:40:43;;;;;;;;;;;19.20;67.10;;;;;;4794335;29;20309;-76
2022/05/26 14:43:10;;;;;;;;;;;19.10;66.00;;;;;;4810760;29;19925;-74
2022/05/26 14:45:35;;;;;;;;;;;19.10;65.80;;;;;;4810437;29;19950;-77
2022/05/26 14:48:04;;;;;;;;;;;19.10;64.90;;;;;;4793347;29;19933;-74
2022/05/26 14:50:34;;;;;;;;;;;19.00;65.00;;;;;;4794362;29;19982;-74
2022/05/26 14:53:01;;;;;;;;;;;19.00;65.00;;;;;;4794941;29;19925;-73
2022/05/26 14:55:28;;;;;;;;;;;19.00;65.20;;;;;;4810459;29;20360;-73
2022/05/26 14:57:55;;;;;;;;;;;19.00;65.10;;;;;;4794353;29;20372;-76
2022/05/26 15:00:22;;;;;;;;;;;19.00;65.30;;;;;;4810043;29;19925;-73
2022/05/26 15:02:48;;;;;;;;;;;19.00;65.30;;;;;;4810390;29;19936;-76
2022/05/26 15:05:14;;;;;;;;;;;19.00;65.20;;;;;;4810278;29;20264;-76
2022/05/26 15:07:40;;;;;;;;;;;19.00;65.10;;;;;;4794451;29;20254;-76
2022/05/26 15:10:07;;;;;;;;;;;19.00;65.40;;;;;;4827589;29;19925;-75
2022/05/26 15:12:34;;;;;;;;;;;19.10;65.50;;;;;;4828074;29;19924;-73
2022/05/26 15:15:00;;;;;;;;;;;19.10;65.50;;;;;;4812689;29;19924;-73
2022/05/26 15:17:26;;;;;;;;;;;19.10;65.40;;;;;;4827843;29;19981;-73
2022/05/26 15:19:54;;;;;;;;;;;19.20;65.60;;;;;;4812061;29;19977;-73
2022/05/26 15:22:20;;;;;;;;;;;19.20;66.00;;;;;;4828180;29;19944;-74
2022/05/26 15:24:46;;;;;;;;;;;19.10;66.10;;;;;;4812145;29;19932;-75
2022/05/26 15:27:13;;;;;;;;;;;19.20;66.30;;;;;;4812044;29;19925;-76
2022/05/26 15:29:39;;;;;;;;;;;19.20;66.10;;;;;;4812453;29;19971;-73
2022/05/26 15:32:07;;;;;;;;;;;19.20;66.10;;;;;;4827852;29;20337;-73
2022/05/26 15:34:33;;;;;;;;;;;19.20;66.20;;;;;;4811876;29;20272;-73
2022/05/26 15:37:00;;;;;;;;;;;19.20;66.20;;;;;;4812457;29;19935;-75
2022/05/26 15:39:27;;;;;;;;;;;19.20;66.40;;;;;;4794714;29;19924;-74
2022/05/26 15:41:53;;;;;;;;;;;19.20;66.40;;;;;;4809397;29;19985;-75
2022/05/26 15:44:21;;;;;;;;;;;19.20;66.50;;;;;;4808370;29;19933;-74
2022/05/26 15:46:52;;;;;;;;;;;19.20;66.70;;;;;;4793137;29;19981;-75
2022/05/26 15:49:19;;;;;;;;;;;19.20;66.70;;;;;;4794821;29;19964;-74
2022/05/26 15:51:44;;;;;;;;;;;19.30;66.60;;;;;;4808617;29;19929;-76
2022/05/26 15:54:10;;;;;;;;;;;19.30;66.70;;;;;;4811714;29;19996;-74
2022/05/26 15:56:39;;;;;;;;;;;19.30;66.70;;;;;;4811522;29;20272;-74
2022/05/26 15:59:04;;;;;;;;;;;19.30;66.70;;;;;;4826057;29;20363;-74
2022/05/26 16:01:31;;;;;;;;;;;19.30;66.80;;;;;;4806871;29;19929;-74
2022/05/26 16:03:57;;;;;;;;;;;19.30;66.70;;;;;;4808752;29;20261;-75
2022/05/26 16:06:24;;;;;;;;;;;19.30;66.70;;;;;;4808635;29;19945;-73
2022/05/26 16:08:50;;;;;;;;;;;19.30;66.80;;;;;;4808689;29;19940;-74
2022/05/26 16:11:17;;;;;;;;;;;19.30;66.80;;;;;;4820260;29;20268;-73
2022/05/26 16:13:44;;;;;;;;;;;19.30;66.70;;;;;;4827565;29;20355;-73
2022/05/26 16:16:10;;;;;;;;;;;19.30;66.70;;;;;;4826967;29;20036;-72
2022/05/26 16:18:36;;;;;;;;;;;19.30;66.70;;;;;;4811512;29;19968;-70
2022/05/26 16:21:02;;;;;;;;;;;19.30;66.70;;;;;;4827136;29;20005;-75
2022/05/26 16:23:28;;;;;;;;;;;19.30;66.70;;;;;;4808060;29;19936;-72
2022/05/26 16:25:54;;;;;;;;;;;19.30;66.60;;;;;;4793154;29;19925;-73
2022/05/26 16:28:20;;;;;;;;;;;19.30;66.60;;;;;;4809317;29;20305;-73
2022/05/26 16:30:51;;;;;;;;;;;19.30;66.60;;;;;;4808619;29;19983;-73
2022/05/26 16:33:17;;;;;;;;;;;19.30;66.50;;;;;;4808841;29;20225;-73
2022/05/26 16:38:30;;;;;;;;;;;19.30;66.30;;;;;;4793225;29;19976;-74
2022/05/26 16:40:55;;;;;;;;;;;19.20;66.30;;;;;;4792668;29;20361;-74
2022/05/26 16:43:21;;;;;;;;;;;19.20;66.20;;;;;;4792665;29;19925;-74
2022/05/26 16:45:47;;;;;;;;;;;19.10;66.10;;;;;;4808592;29;19925;-72
2022/05/26 16:48:13;;;;;;;;;;;19.10;66.10;;;;;;4808628;29;19925;-74
2022/05/26 16:50:39;;;;;;;;;;;19.00;66.20;;;;;;4822723;29;20345;-73
2022/05/26 16:53:04;;;;;;;;;;;19.00;66.20;;;;;;4810430;29;20016;-73
2022/05/26 16:55:30;;;;;;;;;;;19.00;66.30;;;;;;4826949;29;20019;-74
2022/05/26 16:57:56;;;;;;;;;;;18.90;66.30;;;;;;4810615;29;20336;-73
2022/05/26 17:00:22;;;;;;;;;;;18.90;66.40;;;;;;4826206;29;19956;-73
2022/05/26 17:02:48;;;;;;;;;;;18.90;66.50;;;;;;4810756;29;19932;-73
2022/05/26 17:05:13;;;;;;;;;;;18.90;66.60;;;;;;4810393;29;19925;-73
2022/05/26 17:07:39;;;;;;;;;;;18.80;66.70;;;;;;4826365;29;19924;-74
2022/05/26 17:10:06;;;;;;;;;;;18.80;66.80;;;;;;4811928;29;19936;-73
2022/05/26 17:21:01;;;;;;;;;;;18.70;67.40;;;;;;4814381;29;19921;-73
2022/05/26 17:23:34;;;;;;;;;;;18.70;67.60;;;;;;4813974;29;20023;-73
2022/05/26 17:26:01;;;;;;;;;;;18.70;67.60;;;;;;4814244;29;19925;-73
2022/05/26 17:28:27;;;;;;;;;;;18.70;67.90;;;;;;4814132;29;20023;-77
2022/05/26 17:30:53;;;;;;;;;;;18.70;67.90;;;;;;4798096;29;20385;-75
2022/05/26 17:33:18;;;;;;;;;;;18.60;68.00;;;;;;4812907;29;19932;-76
2022/05/26 17:35:44;;;;;;;;;;;18.60;68.00;;;;;;4814267;29;19925;-73
2022/05/26 17:38:10;;;;;;;;;;;18.60;68.20;;;;;;4814199;29;19932;-75
2022/05/26 17:40:40;;;;;;;;;;;18.60;68.30;;;;;;4814264;29;20397;-74
2022/05/26 17:43:06;;;;;;;;;;;18.60;68.40;;;;;;4814245;29;20025;-75
2022/05/26 17:45:32;;;;;;;;;;;18.60;68.50;;;;;;4813883;29;19932;-74
2022/05/26 17:47:57;;;;;;;;;;;18.50;68.70;;;;;;4797932;29;19925;-74
2022/05/26 18:39:35;;;;;;;;;;;18.70;69.30;;;;;;4932427;24;20059;-77
2022/05/26 18:42:01;;;;;;;;;;;18.80;69.80;;;;;;4814322;29;20344;-75
2022/05/26 18:44:27;;;;;;;;;;;18.70;70.50;;;;;;4794665;29;20335;-75
2022/05/26 18:46:53;;;;;;;;;;;18.70;70.50;;;;;;4808338;29;20000;-74
2022/05/26 18:49:20;;;;;;;;;;;18.70;72.20;;;;;;4808020;29;20011;-73
2022/05/26 18:51:46;;;;;;;;;;;18.70;72.00;;;;;;4796479;29;19936;-73
2022/05/26 18:54:12;;;;;;;;;;;18.60;72.40;;;;;;4794796;29;19993;-74
2022/05/26 18:56:38;;;;;;;;;;;18.60;72.10;;;;;;4805074;29;20340;-76
2022/05/26 18:59:04;;;;;;;;;;;18.60;72.80;;;;;;4810077;29;19925;-75
2022/05/26 19:01:30;;;;;;;;;;;18.50;72.70;;;;;;4804726;29;20364;-74
2022/05/26 19:03:56;;;;;;;;;;;18.50;73.10;;;;;;4812446;29;20256;-75
2022/05/26 19:06:22;;;;;;;;;;;18.50;73.20;;;;;;4812588;29;20015;-74
2022/05/26 19:08:48;;;;;;;;;;;18.50;72.90;;;;;;4828505;29;20395;-74
2022/05/26 19:11:40;;;;;;;;;;;18.50;73.00;;;;;;4812281;29;19982;-72
2022/05/26 19:14:01;;;;;;;;;;;18.50;73.00;;;;;;4799692;29;19948;-73
2022/05/26 19:16:27;;;;;;;;;;;18.50;72.80;;;;;;4794018;29;19925;-72
2022/05/26 19:18:52;;;;;;;;;;;18.50;72.60;;;;;;4794398;29;20082;-72
2022/05/26 19:21:18;;;;;;;;;;;18.50;72.40;;;;;;4794326;29;20070;-74
2022/05/26 19:23:43;;;;;;;;;;;18.50;72.40;;;;;;4810003;29;20249;-74
2022/05/26 19:26:09;;;;;;;;;;;18.50;72.60;;;;;;4809817;29;20005;-74
2022/05/26 19:28:45;;;;;;;;;;;18.50;72.50;;;;;;4809800;29;19976;-74
2022/05/26 19:31:20;;;;;;;;;;;18.50;72.50;;;;;;4809664;29;19976;-74
2022/05/26 19:33:46;;;;;;;;;;;18.50;72.30;;;;;;4822686;29;19996;-75
2022/05/26 19:36:12;;;;;;;;;;;18.50;72.90;;;;;;4823183;29;20380;-74
2022/05/26 19:38:37;;;;;;;;;;;18.50;72.30;;;;;;4825315;29;19940;-74
2022/05/26 19:41:04;;;;;;;;;;;18.50;72.10;;;;;;4827521;29;19971;-74
2022/05/26 19:43:32;;;;;;;;;;;18.50;72.40;;;;;;4801199;29;19936;-72
2022/05/26 19:45:57;;;;;;;;;;;18.50;72.00;;;;;;4793725;29;19935;-75
2022/05/26 19:48:23;;;;;;;;;;;18.50;71.60;;;;;;4809600;29;20248;-75
2022/05/26 19:50:49;;;;;;;;;;;18.60;72.10;;;;;;4793844;29;19933;-74
2022/05/26 19:53:14;;;;;;;;;;;18.50;71.50;;;;;;4793693;29;19931;-73
2022/05/26 19:55:42;;;;;;;;;;;18.60;71.50;;;;;;4793369;29;19951;-74
2022/05/26 19:58:08;;;;;;;;;;;18.60;71.80;;;;;;4786048;29;19925;-76
2022/05/26 20:00:33;;;;;;;;;;;18.60;71.60;;;;;;4809281;29;19932;-73
2022/05/26 20:02:59;;;;;;;;;;;18.60;71.40;;;;;;4807324;29;19960;-75
2022/05/26 20:05:29;;;;;;;;;;;18.60;71.40;;;;;;4811713;29;20245;-74
2022/05/26 20:07:56;;;;;;;;;;;18.60;71.70;;;;;;4808606;29;19928;-74
2022/05/26 20:10:22;;;;;;;;;;;18.60;71.40;;;;;;4811990;29;19925;-75
2022/05/26 20:12:47;;;;;;;;;;;18.60;71.30;;;;;;4811691;29;19925;-73
2022/05/26 20:15:13;;;;;;;;;;;18.60;71.20;;;;;;4827479;29;20481;-74
2022/05/26 20:17:40;;;;;;;;;;;18.60;71.30;;;;;;4827261;29;19967;-74
2022/05/26 20:20:07;;;;;;;;;;;18.70;71.30;;;;;;4811127;29;19928;-73
2022/05/26 20:22:32;;;;;;;;;;;18.70;71.30;;;;;;4796776;29;19929;-74
2022/05/26 20:24:58;;;;;;;;;;;18.70;71.20;;;;;;4793310;29;20315;-72
2022/05/26 20:27:24;;;;;;;;;;;18.70;71.40;;;;;;4808931;29;19929;-73
2022/05/26 20:29:50;;;;;;;;;;;18.60;71.10;;;;;;4808765;29;19925;-74
2022/05/26 20:32:16;;;;;;;;;;;18.70;71.00;;;;;;4793221;29;19956;-74